createdAt,value
2018-12-25T00:02:05.604Z,4.90
2018-12-25T00:04:47.978Z,4.90
2018-12-25T00:07:30.578Z,5.00
2018-12-25T00:10:13.020Z,5.00
2018-12-25T00:12:55.812Z,5.00
2018-12-25T00:15:38.619Z,5.00
2018-12-25T00:18:21.533Z,5.00
2018-12-25T00:21:03.977Z,5.10
2018-12-25T00:23:46.474Z,5.10
2018-12-25T00:26:29.160Z,5.10
2018-12-25T00:29:11.596Z,5.10
2018-12-25T00:31:54.127Z,5.10
2018-12-25T00:34:38.350Z,5.10
2018-12-25T00:37:21.052Z,5.10
2018-12-25T00:40:04.175Z,5.20
2018-12-25T00:42:46.903Z,5.20
2018-12-25T00:45:29.272Z,5.20
2018-12-25T00:48:11.883Z,5.20
2018-12-25T00:50:54.936Z,5.20
2018-12-25T00:53:37.641Z,5.20
2018-12-25T00:56:20.071Z,5.20
2018-12-25T00:59:03.358Z,5.20
2018-12-25T01:01:45.784Z,5.30
2018-12-25T01:04:28.415Z,5.30
2018-12-25T01:07:11.296Z,5.30
2018-12-25T01:09:53.779Z,5.30
2018-12-25T01:12:36.672Z,5.30
2018-12-25T01:15:19.248Z,5.30
2018-12-25T01:18:01.708Z,5.30
2018-12-25T01:20:44.766Z,5.30
2018-12-25T01:23:27.291Z,5.30
2018-12-25T01:26:09.781Z,5.30
2018-12-25T01:28:53.132Z,5.30
2018-12-25T01:31:36.020Z,5.30
2018-12-25T01:34:18.616Z,5.30
2018-12-25T01:37:01.360Z,5.40
2018-12-25T01:39:44.510Z,5.40
2018-12-25T01:42:27.328Z,5.40
2018-12-25T01:45:09.878Z,5.40
2018-12-25T01:47:52.245Z,5.30
2018-12-25T01:50:34.788Z,5.30
2018-12-25T01:53:18.670Z,5.30
2018-12-25T01:56:01.368Z,5.30
2018-12-25T01:58:44.076Z,5.30
2018-12-25T02:01:27.312Z,5.30
2018-12-25T02:04:10.212Z,5.30
2018-12-25T02:06:52.992Z,5.30
2018-12-25T02:09:35.204Z,5.30
2018-12-25T02:12:17.875Z,5.40
2018-12-25T02:15:00.263Z,5.50
2018-12-25T02:17:43.601Z,5.50
2018-12-25T02:20:26.127Z,5.50
2018-12-25T02:23:08.902Z,5.50
2018-12-25T02:25:52.205Z,5.40
2018-12-25T02:28:35.243Z,5.40
2018-12-25T02:31:18.273Z,5.40
2018-12-25T02:34:00.748Z,5.40
2018-12-25T02:36:43.384Z,5.40
2018-12-25T02:39:25.725Z,5.40
2018-12-25T02:42:08.532Z,5.40
2018-12-25T02:44:50.940Z,5.40
2018-12-25T02:47:33.912Z,5.50
2018-12-25T02:50:16.277Z,5.50
2018-12-25T02:52:58.413Z,5.50
2018-12-25T02:55:40.977Z,5.50
2018-12-25T02:58:24.165Z,5.50
2018-12-25T03:01:07.200Z,5.50
2018-12-25T03:03:50.460Z,5.60
2018-12-25T03:06:32.596Z,5.50
2018-12-25T03:09:15.423Z,5.60
2018-12-25T03:11:58.779Z,5.60
2018-12-25T03:14:29.564Z,5.60
2018-12-25T03:17:12.363Z,5.50
2018-12-25T03:23:06.804Z,5.50
2018-12-25T03:25:49.933Z,5.50
2018-12-25T03:28:33.217Z,5.40
2018-12-25T03:31:16.229Z,5.40
2018-12-25T03:33:58.535Z,5.40
2018-12-25T03:36:41.011Z,5.40
2018-12-25T03:39:23.372Z,5.50
2018-12-25T03:42:06.531Z,5.50
2018-12-25T03:44:49.381Z,5.50
2018-12-25T03:47:31.972Z,5.40
2018-12-25T03:50:14.476Z,5.40
2018-12-25T03:52:58.832Z,5.50
2018-12-25T03:55:42.202Z,5.50
2018-12-25T03:58:25.459Z,5.50
2018-12-25T04:01:08.414Z,5.50
2018-12-25T04:03:51.263Z,5.60
2018-12-25T04:06:33.948Z,5.60
2018-12-25T04:09:16.582Z,5.60
2018-12-25T04:11:59.701Z,5.60
2018-12-25T04:14:42.186Z,5.60
2018-12-25T04:17:24.912Z,5.60
2018-12-25T04:20:07.964Z,5.60
2018-12-25T04:22:51.396Z,5.60
2018-12-25T04:25:34.599Z,5.60
2018-12-25T04:28:17.939Z,5.60
2018-12-25T04:31:00.331Z,5.60
2018-12-25T04:33:42.967Z,5.60
2018-12-25T04:36:25.251Z,5.60
2018-12-25T04:39:08.109Z,5.60
2018-12-25T04:41:50.648Z,5.70
2018-12-25T04:44:33.420Z,5.70
2018-12-25T04:47:16.020Z,5.70
2018-12-25T04:49:58.616Z,5.70
2018-12-25T04:52:41.357Z,5.80
2018-12-25T04:55:24.147Z,5.80
2018-12-25T04:58:06.369Z,5.80
2018-12-25T05:00:49.101Z,5.80
2018-12-25T05:03:31.476Z,5.80
2018-12-25T05:06:14.061Z,5.90
2018-12-25T05:08:56.896Z,5.90
2018-12-25T05:11:39.320Z,5.90
2018-12-25T05:14:22.763Z,5.90
2018-12-25T05:17:04.856Z,5.90
2018-12-25T05:19:48.292Z,5.90
2018-12-25T05:22:31.370Z,5.80
2018-12-25T05:25:14.051Z,5.70
2018-12-25T05:27:56.824Z,5.70
2018-12-25T05:30:40.020Z,5.70
2018-12-25T05:33:22.709Z,5.70
2018-12-25T05:36:06.052Z,5.70
2018-12-25T05:38:48.771Z,5.60
2018-12-25T05:41:31.247Z,5.60
2018-12-25T05:44:13.967Z,5.60
2018-12-25T06:03:26.949Z,5.50
2018-12-25T06:06:35.346Z,5.40
2018-12-25T06:09:28.653Z,5.40
2018-12-25T06:12:13.461Z,5.40
2018-12-25T06:14:56.669Z,5.40
2018-12-25T06:17:39.083Z,5.40
2018-12-25T06:20:22.196Z,5.40
2018-12-25T06:35:11.041Z,5.30
2018-12-25T06:37:55.114Z,5.30
2018-12-25T06:40:37.980Z,5.30
2018-12-25T06:43:20.440Z,5.30
2018-12-25T06:46:05.395Z,5.30
2018-12-25T06:52:03.115Z,5.40
2018-12-25T07:00:56.001Z,5.30
2018-12-25T07:33:19.612Z,5.00
2018-12-25T07:40:07.617Z,5.00
2018-12-25T07:42:48.372Z,5.10
2018-12-25T07:49:57.304Z,5.20
2018-12-25T07:52:48.619Z,5.20
2018-12-25T07:58:55.108Z,5.30
2018-12-25T08:01:26.036Z,5.30
2018-12-25T08:03:57.091Z,5.30
2018-12-25T08:06:28.109Z,5.30
2018-12-25T08:08:58.867Z,5.20
2018-12-25T08:11:29.720Z,5.20
2018-12-25T08:14:00.731Z,5.20
2018-12-25T08:16:31.500Z,5.20
2018-12-25T08:19:02.535Z,5.20
2018-12-25T08:21:33.859Z,5.20
2018-12-25T08:24:06.613Z,5.20
2018-12-25T08:26:37.576Z,5.20
2018-12-25T08:29:08.363Z,5.30
2018-12-25T08:31:39.860Z,5.30
2018-12-25T08:34:12.556Z,5.30
2018-12-25T08:36:43.496Z,5.30
2018-12-25T08:39:15.003Z,5.20
2018-12-25T08:41:46.043Z,5.20
2018-12-25T08:44:17.058Z,5.00
2018-12-25T08:46:48.958Z,5.10
2018-12-25T09:26:35.159Z,5.20
2018-12-25T09:29:06.705Z,5.20
2018-12-25T09:32:11.595Z,5.20
2018-12-25T09:35:36.421Z,5.20
2018-12-25T09:38:29.436Z,5.30
2018-12-25T09:41:24.285Z,5.30
2018-12-25T09:45:12.883Z,5.30
2018-12-25T09:58:49.401Z,5.40
2018-12-25T10:01:48.099Z,5.50
2018-12-25T10:05:02.488Z,5.50
2018-12-25T10:08:07.098Z,5.50
2018-12-25T10:11:10.120Z,5.50
2018-12-25T10:13:59.173Z,5.60
2018-12-25T10:17:05.428Z,5.70
2018-12-25T10:20:28.839Z,5.80
2018-12-25T10:27:28.340Z,6.00
2018-12-25T10:30:37.495Z,6.00
2018-12-25T10:34:00.114Z,6.00
2018-12-25T10:37:00.621Z,6.00
2018-12-25T10:39:40.280Z,6.00
2018-12-25T10:42:30.224Z,6.10
2018-12-25T10:46:04.439Z,6.10
2018-12-25T10:48:33.213Z,6.10
2018-12-25T10:58:13.176Z,6.20
2018-12-25T11:00:57.283Z,6.20
2018-12-25T11:03:31.150Z,6.30
2018-12-25T11:09:45.977Z,6.40
2018-12-25T11:12:34.095Z,6.50
2018-12-25T11:15:11.483Z,6.60
2018-12-25T11:17:46.444Z,6.60
2018-12-25T11:20:21.244Z,6.70
2018-12-25T11:22:58.712Z,6.70
2018-12-25T11:25:29.831Z,6.70
2018-12-25T11:28:01.334Z,6.70
2018-12-25T11:30:32.568Z,6.80
2018-12-25T11:33:03.375Z,6.90
2018-12-25T11:35:35.873Z,6.90
2018-12-25T11:38:08.356Z,6.90
2018-12-25T11:40:44.964Z,6.90
2018-12-25T11:43:25.923Z,7.00
2018-12-25T11:46:11.301Z,7.10
2018-12-25T11:48:54.311Z,7.10
2018-12-25T11:58:44.478Z,7.20
2018-12-25T12:01:56.609Z,7.20
2018-12-25T12:04:37.455Z,7.20
2018-12-25T12:07:18.655Z,7.10
2018-12-25T12:09:56.378Z,7.10
2018-12-25T12:12:51.331Z,7.20
2018-12-25T12:15:29.482Z,7.10
2018-12-25T12:18:07.811Z,7.10
2018-12-25T12:20:42.425Z,7.10
2018-12-25T12:23:13.598Z,7.10
2018-12-25T12:25:58.964Z,7.10
2018-12-25T12:28:35.382Z,7.00
2018-12-25T12:31:38.508Z,7.00
2018-12-25T12:34:07.291Z,7.00
2018-12-25T12:36:38.763Z,7.10
2018-12-25T12:39:12.061Z,7.10
2018-12-25T12:41:47.702Z,7.10
2018-12-25T12:44:23.348Z,7.20
2018-12-25T12:46:55.953Z,7.20
2018-12-25T12:49:28.790Z,7.30
2018-12-25T12:55:18.436Z,7.20
2018-12-25T13:00:55.902Z,7.20
2018-12-25T13:58:30.771Z,7.40
2018-12-25T14:19:41.022Z,7.30
2018-12-25T14:22:14.932Z,7.30
2018-12-25T14:25:11.725Z,7.30
2018-12-25T14:42:11.969Z,7.40
2018-12-25T14:56:48.316Z,7.40
2018-12-25T14:59:19.087Z,7.30
2018-12-25T15:01:50.381Z,7.30
2018-12-25T15:04:21.871Z,7.20
2018-12-25T15:06:53.578Z,7.20
2018-12-25T15:09:24.488Z,7.20
2018-12-25T15:11:55.035Z,7.20
2018-12-25T15:14:43.525Z,7.20
2018-12-25T15:17:20.115Z,7.10
2018-12-25T15:20:22.425Z,7.10
2018-12-25T15:22:50.816Z,7.00
2018-12-25T15:25:35.853Z,7.00
2018-12-25T15:29:05.852Z,7.00
2018-12-25T15:45:42.121Z,6.90
2018-12-25T15:48:28.278Z,6.90
2018-12-25T15:54:41.377Z,6.90
2018-12-25T15:57:12.570Z,6.80
2018-12-25T16:16:26.866Z,6.70
2018-12-25T16:18:58.696Z,6.70
2018-12-25T16:21:30.099Z,6.70
2018-12-25T16:24:04.025Z,6.60
2018-12-25T16:26:34.834Z,6.60
2018-12-25T16:29:10.753Z,6.50
2018-12-25T17:11:32.962Z,6.30
2018-12-25T17:14:08.189Z,6.20
2018-12-25T17:16:40.731Z,6.20
2018-12-25T17:19:22.301Z,6.20
2018-12-25T17:21:57.666Z,6.10
2018-12-25T17:27:58.184Z,6.10
2018-12-25T17:31:00.641Z,6.10
2018-12-25T17:33:31.835Z,6.10
2018-12-25T17:36:05.942Z,6.10
2018-12-25T17:38:41.098Z,6.00
2018-12-25T17:41:16.254Z,6.10
2018-12-25T17:43:49.096Z,6.10
2018-12-25T17:46:31.857Z,6.10
2018-12-25T17:49:43.604Z,6.10
2018-12-25T17:52:10.984Z,6.10
2018-12-25T17:54:51.525Z,6.00
2018-12-25T17:57:25.809Z,6.00
2018-12-25T18:00:16.265Z,6.00
2018-12-25T18:02:59.235Z,6.00
2018-12-25T18:35:01.594Z,5.70
2018-12-25T18:37:53.234Z,5.60
2018-12-25T18:47:48.712Z,5.60
2018-12-25T19:43:01.251Z,4.90
2018-12-25T19:46:10.232Z,4.90
2018-12-25T19:49:14.717Z,4.90
2018-12-25T20:18:05.661Z,4.90
2018-12-25T20:21:29.653Z,4.90
2018-12-25T20:28:26.267Z,4.80
2018-12-25T20:35:42.518Z,4.70
2018-12-25T20:46:45.376Z,4.60
2018-12-25T20:53:24.118Z,4.60
2018-12-25T20:56:40.384Z,4.60
2018-12-25T21:00:02.493Z,4.60
2018-12-25T21:06:54.985Z,4.70
2018-12-25T21:13:49.713Z,4.60
2018-12-25T21:17:40.535Z,4.50
2018-12-25T21:21:58.936Z,4.50
2018-12-25T21:24:46.317Z,4.60
2018-12-25T21:30:58.589Z,4.50
2018-12-25T21:37:24.814Z,4.60
2018-12-25T21:37:29.065Z,4.50
2018-12-25T21:40:14.923Z,4.60
2018-12-25T21:51:04.702Z,4.60
2018-12-25T21:54:10.696Z,4.60
2018-12-25T22:03:54.465Z,4.70
2018-12-25T22:07:11.422Z,4.70
2018-12-25T22:10:16.445Z,4.70
2018-12-25T22:16:53.519Z,4.70
2018-12-25T22:19:33.466Z,4.70
2018-12-25T22:22:11.924Z,4.70
2018-12-25T22:24:42.928Z,4.80
2018-12-25T22:27:15.849Z,4.70
2018-12-25T22:29:49.768Z,4.70
2018-12-25T22:32:20.680Z,4.70
2018-12-25T22:34:51.772Z,4.70
2018-12-25T22:37:22.867Z,4.60
2018-12-25T22:39:53.647Z,4.60
2018-12-25T22:42:24.703Z,4.60
2018-12-25T22:45:01.598Z,4.60
2018-12-25T22:47:35.236Z,4.60
2018-12-25T22:50:07.232Z,4.60
2018-12-25T22:52:39.142Z,4.60
2018-12-25T22:55:11.130Z,4.50
2018-12-25T22:57:42.189Z,4.50
2018-12-25T23:00:13.403Z,4.50
2018-12-25T23:02:48.749Z,4.50
2018-12-25T23:05:19.610Z,4.60
2018-12-25T23:07:51.089Z,4.50
2018-12-25T23:10:22.447Z,4.50
2018-12-25T23:12:53.425Z,4.50
2018-12-25T23:15:25.076Z,4.50
2018-12-25T23:17:56.477Z,4.50
2018-12-25T23:20:28.857Z,4.50
2018-12-25T23:23:03.250Z,4.50
2018-12-25T23:25:34.784Z,4.40
2018-12-25T23:28:08.758Z,4.50
2018-12-25T23:30:40.322Z,4.50
2018-12-25T23:33:12.812Z,4.40
2018-12-25T23:35:43.811Z,4.40
2018-12-25T23:38:14.895Z,4.40
2018-12-25T23:40:55.616Z,4.40
2018-12-25T23:43:26.814Z,4.40
2018-12-25T23:45:58.120Z,4.40
2018-12-25T23:48:30.568Z,4.40
2018-12-25T23:51:01.880Z,4.40
2018-12-25T23:53:32.747Z,4.40
2018-12-25T23:56:04.080Z,4.40
2018-12-25T23:58:35.148Z,4.40
